createdAt,value
2018-06-02T00:01:06.326Z,101259.63
2018-06-02T00:04:09.629Z,101259.21
2018-06-02T00:07:12.933Z,101258.78
2018-06-02T00:10:16.350Z,101252.65
2018-06-02T00:13:19.621Z,101247.41
2018-06-02T00:16:23.416Z,101250.51
2018-06-02T00:19:26.829Z,101248.77
2018-06-02T00:22:32.764Z,101246.58
2018-06-02T00:25:36.032Z,101246.58
2018-06-02T00:28:39.351Z,101251.38
2018-06-02T00:31:42.916Z,101254.45
2018-06-02T00:34:47.374Z,101249.60
2018-06-02T00:37:50.729Z,101255.32
2018-06-02T00:40:54.040Z,101257.55
2018-06-02T00:44:01.776Z,101262.77
2018-06-02T00:47:05.118Z,101264.95
2018-06-02T00:50:08.458Z,101254.46
2018-06-02T00:53:13.588Z,101254.92
2018-06-02T00:56:16.905Z,101254.98
2018-06-02T00:59:20.228Z,101247.52
2018-06-02T01:02:23.551Z,101250.59
2018-06-02T01:05:27.642Z,101244.48
2018-06-02T01:08:31.288Z,101241.42
2018-06-02T01:11:34.566Z,101251.53
2018-06-02T01:14:37.903Z,101245.43
2018-06-02T01:17:41.848Z,101239.33
2018-06-02T01:20:45.169Z,101239.33
2018-06-02T01:23:48.521Z,101231.03
2018-06-02T01:26:52.324Z,101234.08
2018-06-02T01:29:55.658Z,101231.91
2018-06-02T01:32:59.808Z,101226.65
2018-06-02T01:36:03.140Z,101231.02
2018-06-02T01:39:06.921Z,101227.09
2018-06-02T01:42:10.241Z,101223.59
2018-06-02T01:45:13.650Z,101221.41
2018-06-02T01:48:17.067Z,101227.98
2018-06-02T01:51:21.151Z,101223.62
2018-06-02T01:54:24.561Z,101215.30
2018-06-02T01:57:29.435Z,101213.55
2018-06-02T02:00:32.767Z,101218.38
2018-06-02T02:03:36.725Z,101219.22
2018-06-02T02:06:40.816Z,101223.17
2018-06-02T02:09:45.288Z,101220.94
2018-06-02T02:12:48.627Z,101227.93
2018-06-02T02:15:52.563Z,101225.31
2018-06-02T02:18:55.916Z,101231.45
2018-06-02T02:21:59.317Z,101226.18
2018-06-02T02:25:02.631Z,101235.38
2018-06-02T02:28:05.981Z,101222.73
2018-06-02T02:31:09.296Z,101216.58
2018-06-02T02:34:12.634Z,101220.53
2018-06-02T02:37:15.953Z,101226.66
2018-06-02T02:40:20.812Z,101227.98
2018-06-02T02:43:24.171Z,101229.74
2018-06-02T02:46:28.340Z,101235.84
2018-06-02T02:49:32.629Z,101230.59
2018-06-02T02:52:36.716Z,101244.60
2018-06-02T02:55:40.807Z,101237.60
2018-06-02T02:58:44.223Z,101247.22
2018-06-02T03:01:49.606Z,101245.48
2018-06-02T03:04:52.955Z,101256.41
2018-06-02T03:07:56.288Z,101261.22
2018-06-02T03:10:59.606Z,101256.83
2018-06-02T03:14:02.961Z,101251.56
2018-06-02T03:17:07.157Z,101252.00
2018-06-02T03:20:12.041Z,101255.12
2018-06-02T03:23:15.385Z,101255.08
2018-06-02T03:26:18.693Z,101258.59
2018-06-02T03:29:22.634Z,101260.75
2018-06-02T03:32:25.973Z,101245.83
2018-06-02T03:35:29.288Z,101251.91
2018-06-02T03:38:32.749Z,101251.88
2018-06-02T03:41:36.171Z,101246.05
2018-06-02T03:44:40.773Z,101231.11
2018-06-02T03:47:44.109Z,101235.00
2018-06-02T03:50:47.480Z,101234.93
2018-06-02T03:53:50.787Z,101234.48
2018-06-02T03:56:54.171Z,101233.22
2018-06-02T04:00:00.807Z,101229.83
2018-06-02T04:03:04.149Z,101229.44
2018-06-02T04:06:07.479Z,101234.74
2018-06-02T04:09:11.572Z,101236.98
2018-06-02T04:12:14.903Z,101232.20
2018-06-02T04:15:18.192Z,101236.55
2018-06-02T04:18:21.535Z,101230.84
2018-06-02T04:21:24.945Z,101237.46
2018-06-02T04:24:28.270Z,101244.88
2018-06-02T04:27:32.621Z,101248.81
2018-06-02T04:30:35.947Z,101254.53
2018-06-02T04:33:39.360Z,101257.15
2018-06-02T04:36:43.557Z,101261.99
2018-06-02T04:39:46.897Z,101266.36
2018-06-02T04:42:51.010Z,101271.20
2018-06-02T04:45:55.992Z,101267.63
2018-06-02T04:48:59.296Z,101284.69
2018-06-02T04:52:02.596Z,101287.23
2018-06-02T04:55:05.911Z,101281.95
2018-06-02T04:58:12.362Z,101283.21
2018-06-02T05:01:15.723Z,101288.91
2018-06-02T05:04:19.093Z,101287.16
2018-06-02T05:07:25.507Z,101284.05
2018-06-02T05:10:28.829Z,101291.88
2018-06-02T05:13:32.148Z,101294.91
2018-06-02T05:16:42.211Z,101296.59
2018-06-02T05:19:46.305Z,101289.93
2018-06-02T05:22:51.435Z,101298.19
2018-06-02T05:25:54.767Z,101302.55
2018-06-02T05:28:58.854Z,101308.60
2018-06-02T05:32:03.036Z,101303.67
2018-06-02T05:35:06.371Z,101307.52
2018-06-02T05:38:09.705Z,101313.99
2018-06-02T05:41:13.023Z,101311.33
2018-06-02T05:44:16.354Z,101308.19
2018-06-02T05:47:19.727Z,101303.73
2018-06-02T05:50:23.848Z,101303.66
2018-06-02T05:53:27.176Z,101304.91
2018-06-02T05:56:31.311Z,101301.76
2018-06-02T05:59:34.584Z,101301.23
2018-06-02T06:02:37.971Z,101300.62
2018-06-02T06:05:41.289Z,101293.92
2018-06-02T06:08:46.123Z,101286.71
2018-06-02T06:11:50.911Z,101281.34
2018-06-02T06:14:54.229Z,101278.56
2018-06-02T06:18:00.013Z,101280.22
2018-06-02T06:21:03.343Z,101283.17
2018-06-02T06:24:06.659Z,101280.42
2018-06-02T06:27:10.050Z,101282.03
2018-06-02T06:30:13.384Z,101279.66
2018-06-02T06:33:17.480Z,101286.62
2018-06-02T06:36:20.826Z,101282.52
2018-06-02T06:39:24.142Z,101285.94
2018-06-02T06:42:27.627Z,101291.88
2018-06-02T06:45:31.050Z,101293.19
2018-06-02T06:48:34.441Z,101289.98
2018-06-02T06:51:37.855Z,101291.64
2018-06-02T06:54:41.236Z,101283.66
2018-06-02T06:57:45.187Z,101292.86
2018-06-02T07:00:49.296Z,101280.97
2018-06-02T07:03:53.375Z,101287.06
2018-06-02T07:06:58.554Z,101287.80
2018-06-02T07:10:02.669Z,101282.45
2018-06-02T07:13:06.757Z,101285.09
2018-06-02T07:16:12.056Z,101289.11
2018-06-02T07:19:15.382Z,101289.91
2018-06-02T07:22:19.881Z,101280.52
2018-06-02T07:25:23.318Z,101272.03
2018-06-02T07:28:26.709Z,101274.89
2018-06-02T07:31:30.018Z,101277.66
2018-06-02T07:34:34.388Z,101283.08
2018-06-02T07:37:37.734Z,101291.34
2018-06-02T07:40:41.040Z,101296.91
2018-06-02T07:43:44.422Z,101294.47
2018-06-02T07:46:47.801Z,101301.83
2018-06-02T07:49:51.977Z,101298.27
2018-06-02T07:52:55.309Z,101288.64
2018-06-02T07:56:01.760Z,101298.22
2018-06-02T07:59:05.111Z,101294.28
2018-06-02T08:02:08.420Z,101295.45
2018-06-02T08:05:11.757Z,101297.48
2018-06-02T08:08:15.205Z,101302.89
2018-06-02T08:11:18.494Z,101303.27
2018-06-02T08:14:22.602Z,101308.48
2018-06-02T08:17:26.328Z,101308.56
2018-06-02T08:20:30.516Z,101313.98
2018-06-02T08:23:33.874Z,101311.17
2018-06-02T08:26:37.189Z,101323.45
2018-06-02T08:29:40.510Z,101315.50
2018-06-02T08:32:44.897Z,101315.02
2018-06-02T08:35:48.646Z,101313.28
2018-06-02T08:38:51.982Z,101311.66
2018-06-02T08:41:55.421Z,101319.41
2018-06-02T08:44:59.893Z,101319.50
2018-06-02T08:48:03.238Z,101328.82
2018-06-02T08:51:07.152Z,101325.08
2018-06-02T08:54:10.505Z,101332.83
2018-06-02T08:57:13.819Z,101335.31
2018-06-02T09:00:17.125Z,101332.36
2018-06-02T09:03:21.336Z,101336.29
2018-06-02T09:06:24.810Z,101334.52
2018-06-02T09:09:28.124Z,101332.91
2018-06-02T09:12:31.916Z,101330.34
2018-06-02T09:15:35.774Z,101334.95
2018-06-02T09:18:39.175Z,101338.48
2018-06-02T09:21:42.529Z,101332.40
2018-06-02T09:24:46.509Z,101333.81
2018-06-02T09:27:50.760Z,101336.02
2018-06-02T09:30:54.912Z,101337.95
2018-06-02T09:33:58.330Z,101333.78
2018-06-02T09:37:02.954Z,101330.75
2018-06-02T09:40:07.074Z,101329.16
2018-06-02T09:43:11.951Z,101338.30
2018-06-02T09:46:15.290Z,101326.59
2018-06-02T09:49:19.718Z,101331.83
2018-06-02T09:52:23.042Z,101330.41
2018-06-02T09:55:29.471Z,101323.93
2018-06-02T09:58:33.585Z,101326.84
2018-06-02T10:01:37.774Z,101327.08
2018-06-02T10:04:41.092Z,101327.77
2018-06-02T10:07:44.500Z,101326.66
2018-06-02T10:10:47.878Z,101329.61
2018-06-02T10:13:51.221Z,101332.06
2018-06-02T10:16:55.345Z,101333.57
2018-06-02T10:19:58.661Z,101336.13
2018-06-02T10:23:02.189Z,101333.72
2018-06-02T10:26:05.588Z,101335.94
2018-06-02T10:29:08.907Z,101331.97
2018-06-02T10:32:13.098Z,101330.94
2018-06-02T10:35:16.450Z,101330.61
2018-06-02T10:38:19.853Z,101327.84
2018-06-02T10:41:29.071Z,101327.30
2018-06-02T10:44:32.407Z,101326.08
2018-06-02T10:47:35.810Z,101322.88
2018-06-02T10:50:39.232Z,101318.55
2018-06-02T10:53:42.551Z,101324.20
2018-06-02T10:56:48.997Z,101317.84
2018-06-02T10:59:52.327Z,101321.45
2018-06-02T11:02:56.411Z,101320.81
2018-06-02T11:05:59.788Z,101327.38
2018-06-02T11:09:03.150Z,101332.11
2018-06-02T11:12:07.229Z,101322.67
2018-06-02T11:15:10.702Z,101327.19
2018-06-02T11:18:14.028Z,101331.66
2018-06-02T11:21:18.121Z,101334.86
2018-06-02T11:24:21.446Z,101333.99
2018-06-02T11:27:25.533Z,101334.78
2018-06-02T11:30:29.668Z,101340.59
2018-06-02T11:33:33.797Z,101336.51
2018-06-02T11:36:37.892Z,101340.38
2018-06-02T11:39:41.238Z,101338.66
2018-06-02T11:42:44.569Z,101337.50
2018-06-02T11:45:47.917Z,101338.09
2018-06-02T11:48:51.313Z,101340.14
2018-06-02T11:51:54.780Z,101336.58
2018-06-02T11:54:58.223Z,101330.25
2018-06-02T11:58:01.553Z,101329.35
2018-06-02T12:01:05.601Z,101330.00
2018-06-02T12:04:08.889Z,101330.57
2018-06-02T12:07:13.070Z,101326.61
2018-06-02T12:10:16.505Z,101326.09
2018-06-02T12:13:20.573Z,101327.26
2018-06-02T12:16:24.216Z,101322.69
2018-06-02T12:19:28.380Z,101329.74
2018-06-02T12:22:31.709Z,101326.10
2018-06-02T12:25:35.130Z,101326.61
2018-06-02T12:28:40.012Z,101319.61
2018-06-02T12:31:43.439Z,101317.19
2018-06-02T12:34:47.598Z,101311.13
2018-06-02T12:37:50.960Z,101314.94
2018-06-02T12:40:55.834Z,101312.59
2018-06-02T12:43:59.155Z,101316.84
2018-06-02T12:47:02.492Z,101317.34
2018-06-02T12:50:05.829Z,101314.44
2018-06-02T12:53:10.394Z,101313.53
2018-06-02T12:56:13.762Z,101308.81
2018-06-02T12:59:17.113Z,101310.25
2018-06-02T13:02:21.196Z,101308.81
2018-06-02T13:05:24.605Z,101308.53
2018-06-02T13:08:28.466Z,101302.44
2018-06-02T13:11:31.793Z,101301.67
2018-06-02T13:14:35.246Z,101308.30
2018-06-02T13:17:38.569Z,101312.91
2018-06-02T13:20:43.360Z,101310.76
2018-06-02T13:23:47.956Z,101310.30
2018-06-02T13:26:51.304Z,101312.30
2018-06-02T13:29:54.620Z,101315.69
2018-06-02T13:32:57.932Z,101310.33
2018-06-02T13:36:01.265Z,101310.15
2018-06-02T13:39:04.542Z,101306.02
2018-06-02T13:42:08.670Z,101306.14
2018-06-02T13:45:13.549Z,101307.39
2018-06-02T13:48:16.874Z,101301.39
2018-06-02T13:51:21.294Z,101297.58
2018-06-02T13:54:24.616Z,101305.34
2018-06-02T13:57:28.711Z,101303.86
2018-06-02T14:00:33.277Z,101301.44
2018-06-02T14:03:36.621Z,101296.95
2018-06-02T14:06:39.947Z,101293.05
2018-06-02T14:09:43.295Z,101294.23
2018-06-02T14:12:46.635Z,101295.72
2018-06-02T14:15:49.963Z,101291.33
2018-06-02T14:18:54.586Z,101294.00
2018-06-02T14:21:58.693Z,101292.48
2018-06-02T14:25:02.797Z,101289.08
2018-06-02T14:28:06.198Z,101289.12
2018-06-02T14:31:10.283Z,101288.23
2018-06-02T14:34:13.600Z,101279.12
2018-06-02T14:37:16.925Z,101276.27
2018-06-02T14:40:20.253Z,101271.13
2018-06-02T14:43:24.386Z,101273.13
2018-06-02T14:46:27.706Z,101270.60
2018-06-02T14:49:31.025Z,101272.34
2018-06-02T14:52:35.101Z,101275.29
2018-06-02T14:55:41.732Z,101269.48
2018-06-02T14:58:45.974Z,101273.29
2018-06-02T15:01:49.331Z,101268.74
2018-06-02T15:04:53.177Z,101274.75
2018-06-02T15:07:56.529Z,101272.20
2018-06-02T15:11:00.610Z,101273.60
2018-06-02T15:14:03.940Z,101272.13
2018-06-02T15:17:08.040Z,101270.45
2018-06-02T15:20:11.312Z,101270.13
2018-06-02T15:23:15.417Z,101271.80
2018-06-02T15:26:21.714Z,101271.19
2018-06-02T15:29:25.827Z,101273.89
2018-06-02T15:32:29.956Z,101276.26
2018-06-02T15:35:34.364Z,101278.73
2018-06-02T15:38:38.465Z,101272.38
2018-06-02T15:41:41.820Z,101273.11
2018-06-02T15:44:45.250Z,101275.92
2018-06-02T15:47:48.593Z,101276.09
2018-06-02T15:50:52.547Z,101275.78
2018-06-02T15:53:55.874Z,101278.52
2018-06-02T15:57:00.934Z,101280.25
2018-06-02T16:00:04.313Z,101281.27
2018-06-02T16:03:08.401Z,101277.68
2018-06-02T16:06:11.725Z,101287.23
2018-06-02T16:09:15.286Z,101284.66
2018-06-02T16:12:18.713Z,101290.42
2018-06-02T16:15:22.131Z,101287.05
2018-06-02T16:18:26.257Z,101288.84
2018-06-02T16:21:29.581Z,101296.44
2018-06-02T16:24:35.585Z,101291.13
2018-06-02T16:27:39.682Z,101288.72
2018-06-02T16:30:44.946Z,101290.82
2018-06-02T16:33:48.284Z,101297.25
2018-06-02T16:36:51.625Z,101293.78
2018-06-02T16:39:56.551Z,101296.22
2018-06-02T16:43:00.317Z,101301.95
2018-06-02T16:46:03.663Z,101299.98
2018-06-02T16:49:07.009Z,101297.02
2018-06-02T16:52:10.812Z,101297.98
2018-06-02T16:55:14.671Z,101294.35
2018-06-02T16:58:19.271Z,101300.69
2018-06-02T17:01:23.436Z,101299.66
2018-06-02T17:04:27.551Z,101309.18
2018-06-02T17:07:31.652Z,101304.66
2018-06-02T17:10:34.989Z,101305.11
2018-06-02T17:13:38.275Z,101303.27
2018-06-02T17:16:41.631Z,101305.16
2018-06-02T17:19:45.428Z,101297.53
2018-06-02T17:22:48.739Z,101298.30
2018-06-02T17:25:52.229Z,101296.42
2018-06-02T17:28:55.550Z,101302.29
2018-06-02T17:31:58.879Z,101300.06
2018-06-02T17:35:03.917Z,101298.92
2018-06-02T17:38:07.364Z,101298.30
2018-06-02T17:41:11.432Z,101302.21
2018-06-02T17:44:14.773Z,101302.26
2018-06-02T17:47:18.135Z,101304.03
2018-06-02T17:50:21.462Z,101311.05
2018-06-02T17:53:24.787Z,101309.50
2018-06-02T17:56:29.825Z,101307.63
2018-06-02T17:59:33.921Z,101310.30
2018-06-02T18:02:37.321Z,101307.45
2018-06-02T18:05:50.833Z,101304.87
2018-06-02T18:08:54.241Z,101311.31
2018-06-02T18:11:57.793Z,101318.27
2018-06-02T18:15:05.069Z,101310.39
2018-06-02T18:18:08.605Z,101316.65
2018-06-02T18:21:11.931Z,101321.94
2018-06-02T18:24:15.270Z,101324.06
2018-06-02T18:27:18.943Z,101323.37
2018-06-02T18:30:24.170Z,101328.73
2018-06-02T18:33:27.513Z,101336.97
2018-06-02T18:36:37.156Z,101342.17
2018-06-02T18:39:40.481Z,101347.93
2018-06-02T18:42:43.817Z,101355.80
2018-06-02T18:45:48.516Z,101355.40
2018-06-02T18:48:51.854Z,101351.17
2018-06-02T18:51:55.990Z,101358.09
2018-06-02T18:55:04.036Z,101364.09
2018-06-02T18:58:07.378Z,101363.16
2018-06-02T19:01:13.326Z,101364.53
2018-06-02T19:04:17.430Z,101359.98
2018-06-02T19:07:20.808Z,101360.07
2018-06-02T19:10:24.213Z,101362.58
2018-06-02T19:13:27.561Z,101364.66
2018-06-02T19:16:33.185Z,101368.31
2018-06-02T19:19:37.287Z,101373.92
2018-06-02T19:22:40.639Z,101371.50
2018-06-02T19:25:43.969Z,101385.28
2018-06-02T19:28:49.219Z,101387.62
2018-06-02T19:31:52.556Z,101400.45
2018-06-02T19:34:58.783Z,101401.96
2018-06-02T19:38:02.134Z,101411.23
2018-06-02T19:41:05.446Z,101403.85
2018-06-02T19:44:08.785Z,101425.59
2018-06-02T19:47:13.711Z,101420.89
2018-06-02T19:50:17.839Z,101422.77
2018-06-02T19:53:23.443Z,101431.21
2018-06-02T19:56:26.855Z,101422.86
2018-06-02T19:59:30.306Z,101424.71
2018-06-02T20:02:33.671Z,101431.36
2018-06-02T20:05:39.178Z,101425.66
2018-06-02T20:08:42.515Z,101427.95
2018-06-02T20:11:46.043Z,101430.20
2018-06-02T20:14:49.421Z,101427.97
2018-06-02T20:17:52.724Z,101433.70
2018-06-02T20:20:57.780Z,101432.79
2018-06-02T20:24:01.118Z,101436.38
2018-06-02T20:27:06.497Z,101434.59
2018-06-02T20:43:09.857Z,101429.97
2018-06-02T20:46:13.445Z,101426.81
2018-06-02T20:49:16.838Z,101431.64
2018-06-02T20:52:20.250Z,101430.77
2018-06-02T20:55:23.734Z,101438.20
2018-06-02T20:58:27.142Z,101437.77
2018-06-02T21:01:30.535Z,101449.16
2018-06-02T21:04:33.896Z,101446.52
2018-06-02T21:07:37.381Z,101448.73
2018-06-02T21:10:40.767Z,101447.80
2018-06-02T21:13:45.919Z,101454.00
2018-06-02T21:16:49.362Z,101456.20
2018-06-02T21:19:52.725Z,101455.27
2018-06-02T21:22:56.818Z,101449.58
2018-06-02T21:26:00.160Z,101450.91
2018-06-02T21:29:03.937Z,101457.09
2018-06-02T21:32:07.282Z,101454.06
2018-06-02T21:35:10.634Z,101453.19
2018-06-02T21:38:14.822Z,101463.81
2018-06-02T21:41:18.991Z,101459.81
2018-06-02T21:44:22.350Z,101463.83
2018-06-02T21:47:25.830Z,101468.20
2018-06-02T21:50:30.073Z,101472.14
2018-06-02T21:53:33.422Z,101466.86
2018-06-02T21:56:38.434Z,101473.47
2018-06-02T21:59:41.787Z,101473.48
2018-06-02T22:02:45.903Z,101474.00
2018-06-02T22:05:50.996Z,101469.20
2018-06-02T22:08:54.372Z,101466.61
2018-06-02T22:11:58.946Z,101474.53
2018-06-02T22:15:02.272Z,101468.80
2018-06-02T22:18:05.719Z,101468.80
2018-06-02T22:21:09.616Z,101460.95
2018-06-02T22:24:13.021Z,101460.56
2018-06-02T22:27:16.368Z,101461.91
2018-06-02T22:30:19.738Z,101459.30
2018-06-02T22:33:23.065Z,101453.17
2018-06-02T22:36:26.418Z,101455.81
2018-06-02T22:39:30.134Z,101455.38
2018-06-02T22:42:34.063Z,101452.29
2018-06-02T22:45:38.357Z,101452.31
2018-06-02T22:48:42.788Z,101460.68
2018-06-02T22:51:58.362Z,101456.71
2018-06-02T22:55:01.703Z,101462.02
2018-06-02T22:58:05.170Z,101459.82
2018-06-02T23:01:11.505Z,101459.83
2018-06-02T23:04:15.602Z,101458.91
2018-06-02T23:07:18.944Z,101456.71
2018-06-02T23:10:22.272Z,101459.41
2018-06-02T23:13:27.410Z,101458.95
2018-06-02T23:16:30.738Z,101461.63
2018-06-02T23:19:34.066Z,101462.49
2018-06-02T23:22:41.194Z,101469.52
2018-06-02T23:25:45.012Z,101468.23
2018-06-02T23:28:48.351Z,101469.53
2018-06-02T23:31:51.672Z,101470.00
2018-06-02T23:34:56.339Z,101476.16
2018-06-02T23:37:59.762Z,101474.39
2018-06-02T23:41:03.065Z,101473.52
2018-06-02T23:44:07.177Z,101473.95
2018-06-02T23:47:10.502Z,101459.93
2018-06-02T23:50:15.330Z,101453.81
2018-06-02T23:53:19.418Z,101454.25
2018-06-02T23:56:22.777Z,101457.33
2018-06-02T23:59:27.029Z,101456.02
